DTTF/GAF METAR and TAF weather

Enter ICAO airport designator
Station Type Date Time Source
DTTF METAR 2020/12/05 06:00 UTC NOAA

DTTF 050600Z 04006KT CAVOK 04/00 Q1004 NOSIG


Station Type Date Time Source
DTTF Decoded METAR 2020/12/05 06:00 UTC NOAA

Gafsa, Tunisia (DTTF) 34-25N 008-49E 314M
Dec 05, 2020 - 01:00 AM EST / 2020.12.05 0600 UTC
Wind: from the NE (040 degrees) at 7 MPH (6 KT):0
Visibility: greater than 7 mile(s):0
Temperature: 39 F (4 C)
Dew Point: 32 F (0 C)
Relative Humidity: 75%
Pressure (altimeter): 29.65 in. Hg (1004 hPa)
ob: DTTF 050600Z 04006KT CAVOK 04/00 Q1004 NOSIG
cycle: 6

Station Type Date Time Source
DTTF TAF 2020/09/02 19:15 UTC NOAA

TAF DTTF 021800Z 0219/0310 18006KT 9999 SCT026
BECMG 0222/0224 04018KT PROB30
TEMPO 0304/0310 TSRA FEW026CB

Example: see airport list